Time;durP1;ratioP1;P1;durP2;ratioP2;P2;SDS_P1;SDS_P2;PMS_P1;PMS_P2;Temp;Humidity;BMP_temperature;BMP_pressure;BME280_temperature;BME280_humidity;BME280_pressure;Samples;Min_cycle;Max_cycle;Signal;HPM_P1;HPM_P2
2022/04/15 00:01:20;;;;;;;1.33;0.60;;;10.10;99.90;;;;;;6203948;23;20189;-91
2022/04/15 00:09:17;;;;;;;0.93;0.60;;;9.60;99.90;;;;;;6192327;23;20212;-91
2022/04/15 00:11:53;;;;;;;5.23;1.90;;;9.40;99.90;;;;;;6202630;23;20223;-91
2022/04/15 00:14:37;;;;;;;1.17;0.70;;;9.30;99.90;;;;;;6205792;23;20177;-92
2022/04/15 00:17:10;;;;;;;1.93;0.70;;;9.50;99.90;;;;;;6206240;23;20153;-91
2022/04/15 00:19:46;;;;;;;0.73;0.60;;;9.60;99.90;;;;;;6207124;23;20224;-91
2022/04/15 00:25:19;;;;;;;4.60;0.70;;;9.70;99.90;;;;;;6207339;23;20188;-91
2022/04/15 00:27:55;;;;;;;30.50;1.50;;;9.60;99.90;;;;;;6199814;23;20201;-91
2022/04/15 00:30:29;;;;;;;4.20;0.77;;;9.80;99.90;;;;;;6202419;23;20181;-91
2022/04/15 00:33:00;;;;;;;1.47;0.70;;;9.80;99.90;;;;;;6201887;23;20192;-92
2022/04/15 00:35:36;;;;;;;3.23;0.70;;;9.80;99.90;;;;;;6205392;23;20189;-91
2022/04/15 00:38:08;;;;;;;2.33;1.00;;;10.00;99.90;;;;;;6203024;23;20212;-90
2022/04/15 00:40:42;;;;;;;1.27;0.80;;;10.10;99.90;;;;;;6193165;23;20212;-92
2022/04/15 00:43:13;;;;;;;0.63;0.50;;;10.30;99.90;;;;;;6209433;23;20192;-92
2022/04/15 00:48:31;;;;;;;2.40;1.10;;;10.60;99.90;;;;;;6205240;23;20296;-92
2022/04/15 00:53:53;;;;;;;1.60;1.00;;;10.50;99.90;;;;;;6194085;23;20243;-92
2022/04/15 00:57:01;;;;;;;2.10;0.90;;;10.50;99.90;;;;;;6197312;23;20187;-91
2022/04/15 00:59:41;;;;;;;2.43;0.87;;;10.30;99.90;;;;;;6193772;23;20176;-91
2022/04/15 01:02:19;;;;;;;1.67;0.93;;;10.20;99.90;;;;;;6193733;23;20528;-91
2022/04/15 01:04:58;;;;;;;1.33;0.90;;;9.70;99.90;;;;;;6196100;23;20182;-91
2022/04/15 01:07:35;;;;;;;3.37;1.03;;;9.80;99.90;;;;;;6195220;23;20667;-92
2022/04/15 01:10:13;;;;;;;0.93;0.93;;;9.60;99.90;;;;;;6200056;23;20177;-91
2022/04/15 01:12:48;;;;;;;1.00;0.90;;;9.20;99.90;;;;;;6195623;23;20189;-91
2022/04/15 01:15:44;;;;;;;1.13;0.60;;;9.40;99.90;;;;;;6200420;23;20185;-90
2022/04/15 01:18:17;;;;;;;1.33;0.90;;;9.50;99.90;;;;;;6193059;23;20177;-91
2022/04/15 01:20:50;;;;;;;1.30;1.00;;;9.50;99.90;;;;;;6191544;23;20204;-90
2022/04/15 01:23:26;;;;;;;0.87;0.70;;;9.50;99.90;;;;;;6198845;23;20200;-90
2022/04/15 01:26:02;;;;;;;1.50;0.93;;;9.60;99.90;;;;;;6200614;23;20177;-90
2022/04/15 01:28:34;;;;;;;3.30;0.67;;;9.70;99.90;;;;;;6202149;23;20200;-90
2022/04/15 01:31:07;;;;;;;0.70;0.70;;;9.60;99.90;;;;;;6191909;23;20177;-90
2022/04/15 01:33:39;;;;;;;1.90;0.70;;;9.60;99.90;;;;;;6194768;23;20913;-89
2022/04/15 01:36:14;;;;;;;0.50;0.50;;;9.50;99.90;;;;;;6221433;23;20178;-88
2022/04/15 01:38:48;;;;;;;0.63;0.63;;;9.20;99.90;;;;;;6205067;23;20184;-91
2022/04/15 01:41:21;;;;;;;0.60;0.60;;;8.70;99.90;;;;;;6195924;23;20181;-90
2022/04/15 01:43:55;;;;;;;2.73;0.70;;;8.40;99.90;;;;;;6201699;23;20182;-91
2022/04/15 01:46:26;;;;;;;0.70;0.70;;;8.10;99.90;;;;;;6199620;23;20177;-91
2022/04/15 01:48:57;;;;;;;1.03;0.50;;;8.00;99.90;;;;;;6205448;23;20204;-91
2022/04/15 01:51:37;;;;;;;0.83;0.60;;;8.00;99.90;;;;;;6206111;23;20187;-91
2022/04/15 01:54:12;;;;;;;1.53;0.60;;;7.90;99.90;;;;;;6201841;23;20240;-90
2022/04/15 01:56:51;;;;;;;0.93;0.50;;;7.60;99.90;;;;;;6206656;23;20183;-89
2022/04/15 02:02:21;;;;;;;0.63;0.50;;;7.50;99.90;;;;;;6200250;23;20887;-90
2022/04/15 02:04:53;;;;;;;0.60;0.50;;;7.40;99.90;;;;;;6192380;23;20208;-90
2022/04/15 02:07:25;;;;;;;1.00;0.90;;;7.40;99.90;;;;;;6192275;23;20219;-91
2022/04/15 02:09:59;;;;;;;0.70;0.60;;;7.30;99.90;;;;;;6193084;23;20174;-90
2022/04/15 02:12:32;;;;;;;0.90;0.60;;;7.10;99.90;;;;;;6194467;23;20536;-90
2022/04/15 02:23:01;;;;;;;0.83;0.73;;;6.60;99.90;;;;;;6179635;23;20569;-91
2022/04/15 02:25:35;;;;;;;0.70;0.70;;;6.60;99.90;;;;;;6175412;23;20178;-89
2022/04/15 02:28:09;;;;;;;0.83;0.60;;;6.60;99.90;;;;;;6173070;23;20197;-91
2022/04/15 02:30:41;;;;;;;1.77;0.57;;;6.60;99.90;;;;;;6174766;23;20221;-90
2022/04/15 02:35:58;;;;;;;0.63;0.60;;;6.20;99.90;;;;;;6178217;23;20169;-89
2022/04/15 02:38:29;;;;;;;1.23;0.70;;;6.10;99.90;;;;;;6175464;23;20170;-90
2022/04/15 02:41:07;;;;;;;0.53;0.50;;;6.00;99.90;;;;;;6173129;23;20630;-89
2022/04/15 02:43:40;;;;;;;2.43;0.43;;;6.00;99.90;;;;;;6174106;23;20534;-89
2022/04/15 02:46:15;;;;;;;0.60;0.60;;;6.00;99.90;;;;;;6166961;23;20244;-89
2022/04/15 02:48:47;;;;;;;0.83;0.77;;;5.90;99.90;;;;;;6179540;23;20268;-89
2022/04/15 02:51:23;;;;;;;1.97;0.70;;;5.90;99.90;;;;;;6181491;23;20170;-90
2022/04/15 02:56:33;;;;;;;1.10;0.77;;;5.60;99.90;;;;;;6213065;23;20299;-89
2022/04/15 02:59:04;;;;;;;0.60;0.60;;;5.60;99.90;;;;;;6212672;23;20169;-89
2022/04/15 03:01:39;;;;;;;1.50;1.10;;;5.60;99.90;;;;;;6212213;23;20201;-89
2022/04/15 03:04:12;;;;;;;1.00;0.70;;;5.50;99.90;;;;;;6210429;23;20179;-90
2022/04/15 03:06:47;;;;;;;0.70;0.70;;;5.50;99.90;;;;;;6210105;23;20176;-88
2022/04/15 03:09:21;;;;;;;1.73;0.60;;;5.50;99.90;;;;;;6208674;23;20203;-91
2022/04/15 03:11:57;;;;;;;1.70;0.83;;;5.50;99.90;;;;;;6205602;23;20184;-90
2022/04/15 03:14:30;;;;;;;2.07;1.13;;;5.40;99.90;;;;;;6206105;23;20208;-89
2022/04/15 03:17:04;;;;;;;1.00;0.90;;;5.40;99.90;;;;;;6205958;23;20213;-90
2022/04/15 03:19:36;;;;;;;1.50;1.13;;;5.50;99.90;;;;;;6203511;23;20217;-91
2022/04/15 03:22:08;;;;;;;1.23;1.10;;;5.50;99.90;;;;;;6206010;23;20233;-89
2022/04/15 03:24:39;;;;;;;1.20;0.80;;;5.40;99.90;;;;;;6202395;23;20172;-90
2022/04/15 03:27:14;;;;;;;1.20;0.97;;;5.50;99.90;;;;;;6206253;23;20165;-92
2022/04/15 03:29:47;;;;;;;0.90;0.90;;;5.40;99.90;;;;;;6205937;23;20199;-89
2022/04/15 03:32:20;;;;;;;1.43;0.80;;;5.40;99.90;;;;;;6205648;23;20177;-92
2022/04/15 03:34:54;;;;;;;0.87;0.80;;;5.30;99.90;;;;;;6204952;23;20177;-89
2022/04/15 03:37:27;;;;;;;1.00;0.90;;;5.30;99.90;;;;;;6202049;23;20196;-91
2022/04/15 03:40:00;;;;;;;0.77;0.70;;;5.10;99.90;;;;;;6197139;23;20192;-91
2022/04/15 03:42:44;;;;;;;1.17;0.80;;;5.00;99.90;;;;;;6196341;23;20181;-91
2022/04/15 03:45:24;;;;;;;2.40;0.70;;;5.00;99.90;;;;;;6205471;23;20169;-90
2022/04/15 03:48:04;;;;;;;1.73;0.97;;;4.90;99.90;;;;;;6202582;23;20176;-91
2022/04/15 03:50:37;;;;;;;1.53;0.83;;;4.80;99.90;;;;;;6205155;23;20186;-92
2022/04/15 03:53:10;;;;;;;0.80;0.80;;;4.80;99.90;;;;;;6202097;23;20256;-91
2022/04/15 03:55:41;;;;;;;1.40;1.10;;;4.70;99.90;;;;;;6198207;23;20188;-91
2022/04/15 03:58:16;;;;;;;0.80;0.80;;;4.60;99.90;;;;;;6200530;23;20196;-91
2022/04/15 04:00:47;;;;;;;0.70;0.70;;;4.60;99.90;;;;;;6205538;23;20179;-92
2022/04/15 04:03:18;;;;;;;1.37;1.00;;;4.50;99.90;;;;;;6208132;23;20180;-90
2022/04/15 04:08:34;;;;;;;1.00;0.87;;;4.30;99.90;;;;;;6208130;23;20578;-92
2022/04/15 04:11:19;;;;;;;4.60;2.13;;;4.20;99.90;;;;;;6206605;23;20188;-92
2022/04/15 04:13:56;;;;;;;1.87;0.70;;;4.10;99.90;;;;;;6202274;23;20209;-92
2022/04/15 04:16:28;;;;;;;3.67;1.00;;;4.00;99.90;;;;;;6211301;23;20164;-92
2022/04/15 04:18:59;;;;;;;0.83;0.63;;;3.90;99.90;;;;;;6209747;23;20165;-92
2022/04/15 04:21:33;;;;;;;1.07;0.70;;;3.80;99.90;;;;;;6211838;23;20252;-91
2022/04/15 04:24:06;;;;;;;1.27;0.70;;;3.80;99.90;;;;;;6211571;23;20200;-93
2022/04/15 04:26:39;;;;;;;0.90;0.90;;;3.80;99.90;;;;;;6211744;23;20200;-91
2022/04/15 04:29:14;;;;;;;1.00;1.00;;;3.70;99.90;;;;;;6208180;23;20208;-92
2022/04/15 04:31:47;;;;;;;1.07;0.90;;;3.70;99.90;;;;;;6209969;23;20200;-93
2022/04/15 04:34:19;;;;;;;0.83;0.80;;;3.60;99.90;;;;;;6208962;23;20180;-91
2022/04/15 04:36:50;;;;;;;1.53;0.80;;;3.60;99.90;;;;;;6203664;23;20173;-92
2022/04/15 04:39:25;;;;;;;1.47;1.37;;;3.60;99.90;;;;;;6193230;23;20612;-92
2022/04/15 04:42:11;;;;;;;1.77;0.90;;;3.50;99.90;;;;;;6201065;23;20165;-91
2022/04/15 04:44:55;;;;;;;1.40;1.10;;;3.50;99.90;;;;;;6204860;23;20184;-92
2022/04/15 04:47:29;;;;;;;1.07;0.97;;;3.50;99.90;;;;;;6202396;23;20153;-92
2022/04/15 04:50:02;;;;;;;1.97;1.20;;;3.50;99.90;;;;;;6204603;23;20208;-91
2022/04/15 04:52:35;;;;;;;0.93;0.83;;;3.50;99.90;;;;;;6198477;23;20184;-93
2022/04/15 04:55:08;;;;;;;1.63;1.10;;;3.50;99.90;;;;;;6194582;23;20555;-93
2022/04/15 04:57:42;;;;;;;2.30;1.40;;;3.40;99.90;;;;;;6192298;23;20632;-94
2022/04/15 05:00:19;;;;;;;2.30;1.00;;;3.40;99.90;;;;;;6192742;23;20177;-91
2022/04/15 05:02:50;;;;;;;1.57;1.13;;;3.30;99.90;;;;;;6192519;23;20184;-92
2022/04/15 05:05:23;;;;;;;1.20;1.10;;;3.30;99.90;;;;;;6196698;23;20235;-93
2022/04/15 05:07:56;;;;;;;1.53;1.30;;;3.30;99.90;;;;;;6203152;23;20288;-92
2022/04/15 05:10:27;;;;;;;1.97;1.77;;;3.30;99.90;;;;;;6211751;23;20195;-92
2022/04/15 05:13:00;;;;;;;1.20;1.00;;;3.20;99.90;;;;;;6211550;23;20177;-92
2022/04/15 05:15:35;;;;;;;1.40;1.30;;;3.20;99.90;;;;;;6200135;23;20177;-92
2022/04/15 05:18:18;;;;;;;2.30;1.37;;;3.10;99.90;;;;;;6206854;23;20272;-90
2022/04/15 05:20:50;;;;;;;2.10;1.40;;;3.10;99.90;;;;;;6197398;23;20184;-91
2022/04/15 05:23:21;;;;;;;1.60;1.20;;;3.00;99.90;;;;;;6195708;23;20172;-91
2022/04/15 05:25:57;;;;;;;2.03;1.50;;;3.00;99.90;;;;;;6205947;23;20177;-92
2022/04/15 05:28:38;;;;;;;2.57;1.70;;;3.00;99.90;;;;;;6207992;23;20185;-92
2022/04/15 05:31:23;;;;;;;1.63;1.17;;;3.00;99.90;;;;;;6204922;23;20176;-91
2022/04/15 05:33:57;;;;;;;3.60;2.07;;;2.90;99.90;;;;;;6199499;23;20184;-93
2022/04/15 05:39:29;;;;;;;2.60;1.67;;;2.90;99.90;;;;;;6164879;23;20187;-90
2022/04/15 05:42:03;;;;;;;2.70;1.93;;;2.90;99.90;;;;;;6162490;23;20178;-91
2022/04/15 05:44:35;;;;;;;3.03;1.80;;;2.90;99.90;;;;;;6162480;23;20189;-92
2022/04/15 05:47:10;;;;;;;1.40;1.30;;;2.90;99.90;;;;;;6160449;23;20228;-94
2022/04/15 05:49:42;;;;;;;2.10;1.90;;;2.90;99.90;;;;;;6162499;23;20216;-92
2022/04/15 05:55:02;;;;;;;1.47;1.37;;;2.80;99.90;;;;;;6165618;23;20189;-91
2022/04/15 05:57:36;;;;;;;1.73;1.27;;;2.80;99.90;;;;;;6162815;23;20181;-92
2022/04/15 06:00:09;;;;;;;2.37;1.60;;;2.80;99.90;;;;;;6163277;23;20194;-93
2022/04/15 06:02:43;;;;;;;1.60;1.50;;;2.80;99.90;;;;;;6162541;23;20474;-93
2022/04/15 06:05:15;;;;;;;2.00;1.53;;;2.80;99.90;;;;;;6164460;23;20593;-92
2022/04/15 06:07:52;;;;;;;2.13;1.50;;;2.70;99.90;;;;;;6167252;23;20181;-92
2022/04/15 06:10:24;;;;;;;1.97;1.60;;;2.80;99.90;;;;;;6168728;23;20200;-93
2022/04/15 06:13:14;;;;;;;2.43;1.90;;;2.80;99.90;;;;;;6161377;23;20500;-93
2022/04/15 06:15:51;;;;;;;1.70;1.60;;;2.80;99.90;;;;;;6161060;23;20241;-92
2022/04/15 06:18:29;;;;;;;1.33;1.23;;;2.80;99.90;;;;;;6159953;23;20177;-92
2022/04/15 06:21:04;;;;;;;2.20;1.50;;;2.80;99.90;;;;;;6160701;23;20178;-92
2022/04/15 06:23:36;;;;;;;3.50;1.60;;;2.70;99.90;;;;;;6160557;23;20245;-91
2022/04/15 06:26:07;;;;;;;1.60;1.40;;;2.70;99.90;;;;;;6160823;23;20213;-91
2022/04/15 06:28:39;;;;;;;1.87;1.57;;;2.80;99.90;;;;;;6160751;23;20197;-92
2022/04/15 06:31:10;;;;;;;1.20;1.10;;;2.80;99.90;;;;;;6161228;23;20233;-91
2022/04/15 06:33:44;;;;;;;1.53;1.20;;;2.80;99.90;;;;;;6160238;23;20536;-91
2022/04/15 06:36:15;;;;;;;2.53;1.80;;;2.80;99.90;;;;;;6161560;23;20186;-90
2022/04/15 06:38:46;;;;;;;2.83;1.53;;;2.90;99.90;;;;;;6160735;23;20190;-89
2022/04/15 06:41:21;;;;;;;1.80;1.50;;;3.00;99.90;;;;;;6162271;23;20521;-89
2022/04/15 06:43:53;;;;;;;2.10;1.40;;;2.90;99.90;;;;;;6162027;23;20165;-90
2022/04/15 06:46:24;;;;;;;1.53;1.40;;;2.90;99.90;;;;;;6161092;23;20181;-90
2022/04/15 06:48:57;;;;;;;1.70;1.60;;;2.90;99.90;;;;;;6159672;23;20197;-90
2022/04/15 06:51:28;;;;;;;2.63;1.60;;;2.90;99.90;;;;;;6161068;23;20537;-90
2022/04/15 06:54:00;;;;;;;2.03;1.40;;;2.90;99.90;;;;;;6163445;23;20553;-90
2022/04/15 06:56:33;;;;;;;1.60;1.40;;;2.80;99.90;;;;;;6160665;23;20260;-89
2022/04/15 06:59:04;;;;;;;2.27;1.60;;;2.80;99.90;;;;;;6161895;23;20177;-90
2022/04/15 07:01:37;;;;;;;4.53;1.70;;;2.80;99.90;;;;;;6160806;23;20196;-91
2022/04/15 07:04:11;;;;;;;1.47;1.37;;;2.80;99.90;;;;;;6161896;23;20236;-89
2022/04/15 07:06:43;;;;;;;1.97;1.67;;;2.80;99.90;;;;;;6159762;23;20205;-90
2022/04/15 07:09:14;;;;;;;2.17;1.70;;;2.90;99.90;;;;;;6161831;23;20210;-90
2022/04/15 07:11:45;;;;;;;1.93;1.70;;;2.80;99.90;;;;;;6164646;23;20492;-91
2022/04/15 07:14:16;;;;;;;1.73;1.40;;;2.90;99.90;;;;;;6164051;23;20194;-91
2022/04/15 07:16:50;;;;;;;2.30;1.77;;;2.90;99.90;;;;;;6167554;23;20182;-90
2022/04/15 07:19:25;;;;;;;2.43;1.37;;;3.00;99.90;;;;;;6161164;23;20224;-91
2022/04/15 07:21:57;;;;;;;2.00;1.63;;;3.00;99.90;;;;;;6171795;23;20208;-91
2022/04/15 07:24:30;;;;;;;1.83;1.57;;;3.00;99.90;;;;;;6166019;23;20571;-91
2022/04/15 07:27:04;;;;;;;2.10;1.50;;;3.00;99.90;;;;;;6165166;23;20174;-91
2022/04/15 07:29:37;;;;;;;2.40;1.67;;;3.10;99.90;;;;;;6172937;23;20182;-90
2022/04/15 07:32:09;;;;;;;2.50;2.07;;;3.10;99.90;;;;;;6170836;23;20449;-89
2022/04/15 07:34:45;;;;;;;1.80;1.70;;;3.20;99.90;;;;;;6173273;23;20192;-90
2022/04/15 07:37:18;;;;;;;1.67;1.50;;;3.20;99.90;;;;;;6164263;23;20196;-90
2022/04/15 07:39:50;;;;;;;1.83;1.60;;;3.20;99.90;;;;;;6162341;23;20177;-90
2022/04/15 07:42:21;;;;;;;1.97;1.37;;;3.20;99.90;;;;;;6161983;23;20178;-90
2022/04/15 07:44:54;;;;;;;2.57;1.87;;;3.10;99.90;;;;;;6160915;23;20174;-89
2022/04/15 07:47:26;;;;;;;2.00;1.60;;;3.10;99.90;;;;;;6138182;23;20385;-91
2022/04/15 07:50:22;;;;;;;2.00;1.63;;;3.10;99.90;;;;;;6161533;23;20288;-90
2022/04/15 07:52:56;;;;;;;2.50;2.00;;;3.00;99.90;;;;;;6161390;23;20218;-90
2022/04/15 07:55:27;;;;;;;1.90;1.70;;;3.00;99.90;;;;;;6161838;23;20178;-90
2022/04/15 07:57:58;;;;;;;2.03;1.83;;;3.00;99.90;;;;;;6167491;23;20192;-89
2022/04/15 08:00:34;;;;;;;2.87;1.77;;;2.90;99.90;;;;;;6169285;23;20232;-90
2022/04/15 08:03:06;;;;;;;2.70;1.67;;;2.90;99.90;;;;;;6170952;23;20252;-90
2022/04/15 08:05:40;;;;;;;2.80;1.60;;;2.80;99.90;;;;;;6161867;23;20263;-90
2022/04/15 08:08:12;;;;;;;1.70;1.60;;;2.70;99.90;;;;;;6159780;23;20264;-90
2022/04/15 08:10:45;;;;;;;2.47;1.47;;;2.70;99.90;;;;;;6160608;23;20228;-90
2022/04/15 08:13:16;;;;;;;2.20;1.90;;;2.70;99.90;;;;;;6159633;23;20193;-90
2022/04/15 08:15:50;;;;;;;1.90;1.70;;;2.70;99.90;;;;;;6161136;23;20570;-90
2022/04/15 08:18:22;;;;;;;1.83;1.63;;;2.60;99.90;;;;;;6159666;23;20172;-90
2022/04/15 08:20:57;;;;;;;3.33;1.90;;;2.70;99.90;;;;;;6161088;23;20205;-90
2022/04/15 08:23:28;;;;;;;2.53;1.60;;;2.70;99.90;;;;;;6161014;23;20173;-91
2022/04/15 08:25:59;;;;;;;2.30;2.00;;;2.70;99.90;;;;;;6160852;23;20244;-91
2022/04/15 08:28:30;;;;;;;2.27;1.60;;;2.70;99.90;;;;;;6159336;23;20197;-90
2022/04/15 08:31:02;;;;;;;5.47;1.43;;;2.70;99.90;;;;;;6159962;23;20201;-90
2022/04/15 08:33:34;;;;;;;2.00;1.50;;;2.80;99.90;;;;;;6168332;23;20181;-89
2022/04/15 08:36:08;;;;;;;1.87;1.40;;;2.80;99.90;;;;;;6162873;23;20559;-90
2022/04/15 08:38:39;;;;;;;1.60;1.30;;;2.90;99.90;;;;;;6159774;23;20565;-91
2022/04/15 08:41:15;;;;;;;2.00;1.60;;;3.00;99.90;;;;;;6160669;23;20183;-91
2022/04/15 08:43:49;;;;;;;3.23;1.73;;;3.00;99.90;;;;;;6159938;23;20211;-90
2022/04/15 08:46:21;;;;;;;2.10;1.90;;;3.00;99.90;;;;;;6161086;23;20177;-90
2022/04/15 08:48:54;;;;;;;3.23;2.17;;;3.10;99.90;;;;;;6160041;23;20252;-91
2022/04/15 08:51:29;;;;;;;3.30;1.97;;;3.10;99.90;;;;;;6162556;23;20190;-90
2022/04/15 08:54:01;;;;;;;2.40;1.80;;;3.20;99.90;;;;;;6160757;23;20165;-90
2022/04/15 08:56:33;;;;;;;2.70;2.10;;;3.30;99.90;;;;;;6165988;23;20177;-90
2022/04/15 08:59:05;;;;;;;2.10;1.90;;;3.30;99.90;;;;;;6167874;23;20190;-91
2022/04/15 09:01:36;;;;;;;1.70;1.60;;;3.20;99.90;;;;;;6163820;23;20181;-91
2022/04/15 09:04:07;;;;;;;2.90;2.00;;;3.20;99.90;;;;;;6164610;23;20177;-91
2022/04/15 09:06:44;;;;;;;1.60;1.50;;;3.10;99.90;;;;;;6165795;23;20220;-91
2022/04/15 09:09:15;;;;;;;2.47;1.93;;;3.10;99.90;;;;;;6159912;23;20174;-91
2022/04/15 09:11:51;;;;;;;3.07;1.90;;;3.00;99.90;;;;;;6162610;23;20223;-92
2022/04/15 09:14:23;;;;;;;2.00;1.80;;;3.00;99.90;;;;;;6161217;23;20216;-92
2022/04/15 09:16:55;;;;;;;4.17;2.00;;;3.00;99.90;;;;;;6161087;23;20178;-91
2022/04/15 09:19:26;;;;;;;3.17;2.00;;;3.00;99.90;;;;;;6162198;23;20181;-90
2022/04/15 09:22:03;;;;;;;2.10;1.90;;;3.00;99.90;;;;;;6162117;23;20188;-92
2022/04/15 09:24:36;;;;;;;2.13;1.73;;;3.10;99.90;;;;;;6163946;23;20193;-90
2022/04/15 09:27:08;;;;;;;1.97;1.80;;;3.10;99.90;;;;;;6169722;23;20169;-91
2022/04/15 09:29:41;;;;;;;3.10;2.13;;;3.10;99.90;;;;;;6177155;23;20170;-88
2022/04/15 09:32:14;;;;;;;2.07;1.67;;;3.10;99.90;;;;;;6176436;23;20205;-88
2022/04/15 09:34:56;;;;;;;2.47;2.27;;;3.00;99.90;;;;;;6179214;23;20162;-90
2022/04/15 09:37:31;;;;;;;2.43;1.97;;;3.00;99.90;;;;;;6182593;23;20185;-93
2022/04/15 09:40:09;;;;;;;2.40;2.20;;;3.00;99.90;;;;;;6182097;23;20165;-91
2022/04/15 09:42:46;;;;;;;2.87;2.17;;;2.90;99.90;;;;;;6166872;23;20181;-91
2022/04/15 09:45:19;;;;;;;4.07;2.17;;;2.90;99.90;;;;;;6168531;23;20281;-91
2022/04/15 09:47:53;;;;;;;2.90;2.23;;;2.80;99.90;;;;;;6164625;23;20236;-91
2022/04/15 09:50:27;;;;;;;4.83;2.63;;;2.80;99.90;;;;;;6163750;23;20180;-91
2022/04/15 09:53:11;;;;;;;2.93;2.10;;;2.70;99.90;;;;;;6162133;23;20202;-91
2022/04/15 09:55:46;;;;;;;2.83;2.27;;;2.70;99.90;;;;;;6167150;23;20178;-92
2022/04/15 09:58:19;;;;;;;2.83;2.03;;;2.60;99.90;;;;;;6162407;23;20177;-91
2022/04/15 10:00:53;;;;;;;3.13;2.30;;;2.60;99.90;;;;;;6162765;23;20181;-91
2022/04/15 10:03:25;;;;;;;2.83;2.27;;;2.60;99.90;;;;;;6163421;23;20190;-91
2022/04/15 10:05:58;;;;;;;4.33;2.20;;;2.60;99.90;;;;;;6162801;23;20170;-90
2022/04/15 10:08:32;;;;;;;2.57;2.23;;;2.60;99.90;;;;;;6162572;23;20200;-92
2022/04/15 10:11:04;;;;;;;4.80;2.30;;;2.50;99.90;;;;;;6162750;23;20192;-92
2022/04/15 10:13:36;;;;;;;4.30;2.67;;;2.50;99.90;;;;;;6166198;23;20178;-90
2022/04/15 10:16:10;;;;;;;2.70;2.37;;;2.50;99.90;;;;;;6148823;23;20200;-90
2022/04/15 10:18:43;;;;;;;2.80;2.03;;;2.50;99.90;;;;;;6171107;23;20196;-91
2022/04/15 10:24:19;;;;;;;3.67;2.40;;;2.60;99.90;;;;;;6206050;23;20190;-90
2022/04/15 10:27:00;;;;;;;3.17;2.40;;;2.70;99.90;;;;;;6197430;23;20177;-91
2022/04/15 10:29:31;;;;;;;5.50;2.37;;;2.80;99.90;;;;;;6197890;23;20187;-91
2022/04/15 10:32:13;;;;;;;2.23;1.87;;;2.80;99.90;;;;;;6193271;23;20566;-91
2022/04/15 10:34:48;;;;;;;3.80;2.97;;;2.90;99.90;;;;;;6195521;23;20161;-91
2022/04/15 10:37:40;;;;;;;3.40;2.33;;;3.00;99.90;;;;;;6196863;23;20176;-91
2022/04/15 10:40:24;;;;;;;3.13;2.20;;;3.00;99.90;;;;;;6212845;23;20168;-89
2022/04/15 10:43:06;;;;;;;3.13;2.63;;;3.00;99.90;;;;;;6212872;23;20153;-90
2022/04/15 10:45:40;;;;;;;3.57;2.67;;;3.00;99.90;;;;;;6210726;23;20169;-89
2022/04/15 10:48:12;;;;;;;3.27;2.73;;;3.10;99.90;;;;;;6202059;23;20176;-88
2022/04/15 10:50:44;;;;;;;2.90;2.43;;;3.10;99.90;;;;;;6197713;23;20165;-89
2022/04/15 10:53:34;;;;;;;3.87;2.43;;;3.20;99.90;;;;;;6193015;23;20247;-90
2022/04/15 10:56:10;;;;;;;4.23;3.10;;;3.20;99.90;;;;;;6215332;23;20169;-89
2022/04/15 11:02:16;;;;;;;3.30;2.60;;;3.30;99.90;;;;;;6144131;23;20568;-89
2022/04/15 11:04:56;;;;;;;4.10;2.80;;;3.30;99.90;;;;;;6143985;23;20159;-89
2022/04/15 11:07:31;;;;;;;5.20;2.90;;;3.30;99.90;;;;;;6185212;23;20212;-88
2022/04/15 11:10:03;;;;;;;3.77;3.20;;;3.30;99.90;;;;;;6209836;23;20184;-89
2022/04/15 11:12:44;;;;;;;4.20;3.10;;;3.30;99.90;;;;;;6203766;23;20205;-91
2022/04/15 11:15:59;;;;;;;4.53;3.40;;;3.30;99.90;;;;;;6193370;23;20493;-90
2022/04/15 11:18:50;;;;;;;4.03;3.03;;;3.30;99.90;;;;;;6200805;23;20330;-91
2022/04/15 11:21:32;;;;;;;4.70;3.67;;;3.30;99.90;;;;;;6212481;23;20196;-90
2022/04/15 11:24:04;;;;;;;4.67;3.20;;;3.30;99.90;;;;;;6212560;23;20192;-90
2022/04/15 11:26:39;;;;;;;3.37;2.90;;;3.20;99.90;;;;;;6211567;23;20161;-91
2022/04/15 11:29:11;;;;;;;4.17;3.40;;;3.30;99.90;;;;;;6211611;23;20169;-90
2022/04/15 11:31:49;;;;;;;8.57;2.97;;;3.30;99.90;;;;;;6211702;23;20509;-90
2022/04/15 11:34:21;;;;;;;3.07;2.70;;;3.30;99.90;;;;;;6211766;23;20165;-90
2022/04/15 11:36:55;;;;;;;3.53;3.10;;;3.30;99.90;;;;;;6207171;23;20188;-91
2022/04/15 11:39:27;;;;;;;2.97;2.63;;;3.40;99.90;;;;;;6207370;23;20196;-91
2022/04/15 11:42:00;;;;;;;3.90;2.63;;;3.40;99.90;;;;;;6207976;23;20169;-90
2022/04/15 11:44:33;;;;;;;4.27;2.87;;;3.40;99.90;;;;;;6207819;23;20200;-90
2022/04/15 11:47:19;;;;;;;3.20;2.60;;;3.40;99.90;;;;;;6207043;23;20169;-90
2022/04/15 11:49:52;;;;;;;3.03;2.57;;;3.40;99.90;;;;;;6208985;23;20169;-90
2022/04/15 11:52:26;;;;;;;5.03;2.87;;;3.30;99.90;;;;;;6207956;23;20201;-91
2022/04/15 11:54:58;;;;;;;3.23;2.93;;;3.30;99.90;;;;;;6208368;23;20181;-91
2022/04/15 11:57:31;;;;;;;3.80;2.90;;;3.40;99.90;;;;;;6207057;23;20169;-90
2022/04/15 12:00:04;;;;;;;3.50;2.60;;;3.30;99.90;;;;;;6204774;23;20169;-90
2022/04/15 12:02:44;;;;;;;3.70;2.70;;;3.40;99.90;;;;;;6225640;23;20180;-90
2022/04/15 12:05:17;;;;;;;3.83;2.70;;;3.40;99.90;;;;;;6202608;23;20229;-89
2022/04/15 12:07:49;;;;;;;3.47;2.73;;;3.40;99.90;;;;;;6198853;23;20177;-90
2022/04/15 12:10:22;;;;;;;3.47;2.80;;;3.40;99.90;;;;;;6196545;23;20162;-90
2022/04/15 12:12:54;;;;;;;3.30;2.37;;;3.40;99.90;;;;;;6196970;23;20201;-89
2022/04/15 12:15:28;;;;;;;5.17;2.90;;;3.40;99.90;;;;;;6193794;23;20617;-89
2022/04/15 12:18:05;;;;;;;2.80;2.57;;;3.40;99.90;;;;;;6192814;23;20687;-90
2022/04/15 12:20:38;;;;;;;3.33;2.50;;;3.40;99.90;;;;;;6197591;23;20153;-90
2022/04/15 12:23:14;;;;;;;2.87;2.47;;;3.40;99.90;;;;;;6196264;23;20287;-91
2022/04/15 12:26:10;;;;;;;4.07;2.80;;;3.40;99.90;;;;;;6192313;23;20184;-90
2022/04/15 12:31:32;;;;;;;3.47;2.10;;;3.30;99.90;;;;;;6197517;23;20173;-91
2022/04/15 12:37:02;;;;;;;5.03;2.60;;;3.20;99.90;;;;;;6220878;23;20204;-90
2022/04/15 12:39:56;;;;;;;3.27;2.03;;;3.20;99.90;;;;;;6198253;23;20528;-90
2022/04/15 12:42:42;;;;;;;3.03;2.23;;;3.20;99.90;;;;;;6202242;23;20185;-90
2022/04/15 12:45:16;;;;;;;2.60;2.40;;;3.20;99.90;;;;;;6200202;23;20188;-90
2022/04/15 12:48:00;;;;;;;2.80;2.23;;;3.10;99.90;;;;;;6200127;23;20207;-90
2022/04/15 12:50:36;;;;;;;3.10;2.67;;;3.10;99.90;;;;;;6201942;23;20192;-90
2022/04/15 12:53:17;;;;;;;3.17;2.77;;;3.10;99.90;;;;;;6208272;23;20204;-91
2022/04/15 12:55:50;;;;;;;3.13;2.67;;;3.10;99.90;;;;;;6206604;23;20169;-91
2022/04/15 12:58:23;;;;;;;5.37;3.23;;;3.00;99.90;;;;;;6206204;23;20176;-89
2022/04/15 13:00:57;;;;;;;3.90;2.77;;;2.90;99.90;;;;;;6200174;23;20184;-89
2022/04/15 13:03:34;;;;;;;4.70;3.37;;;2.90;99.90;;;;;;6198689;23;20203;-91
2022/04/15 13:06:09;;;;;;;3.47;3.00;;;2.90;99.90;;;;;;6223913;23;20231;-91
2022/04/15 13:08:41;;;;;;;3.03;2.73;;;2.90;99.90;;;;;;6204947;23;20176;-90
2022/04/15 13:11:11;;;;;;;3.73;2.57;;;2.90;99.90;;;;;;6205654;23;20177;-89
2022/04/15 13:13:42;;;;;;;3.93;3.00;;;2.80;99.90;;;;;;6200876;23;20189;-90
2022/04/15 13:16:18;;;;;;;4.33;2.97;;;2.70;99.90;;;;;;6205480;23;20203;-91
2022/04/15 13:18:50;;;;;;;3.23;2.93;;;2.70;99.90;;;;;;6197086;23;20268;-92
2022/04/15 13:21:24;;;;;;;3.90;2.90;;;2.60;99.90;;;;;;6196341;23;20251;-92
2022/04/15 13:23:59;;;;;;;3.87;3.00;;;2.60;99.90;;;;;;6195374;23;20261;-92
2022/04/15 13:26:31;;;;;;;2.87;2.57;;;2.60;99.90;;;;;;6193690;23;20467;-91
2022/04/15 13:29:04;;;;;;;3.37;2.80;;;2.60;99.90;;;;;;6192862;23;20181;-92
2022/04/15 13:31:36;;;;;;;3.93;3.00;;;2.60;99.90;;;;;;6191980;23;20212;-90
2022/04/15 13:34:08;;;;;;;4.27;2.77;;;2.60;99.90;;;;;;6192888;23;20616;-91
2022/04/15 13:36:41;;;;;;;3.83;2.90;;;2.60;99.90;;;;;;6193008;23;20171;-91
2022/04/15 13:39:13;;;;;;;3.70;3.30;;;2.60;99.90;;;;;;6192721;23;20165;-91
2022/04/15 13:41:44;;;;;;;3.60;2.63;;;2.70;99.90;;;;;;6216135;23;20200;-90
2022/04/15 13:44:15;;;;;;;4.73;3.20;;;2.70;99.90;;;;;;6192663;23;20169;-91
2022/04/15 13:46:47;;;;;;;3.17;2.70;;;2.80;99.90;;;;;;6191563;23;20204;-91
2022/04/15 13:49:19;;;;;;;4.20;3.40;;;3.00;99.90;;;;;;6194191;23;20208;-91
2022/04/15 13:51:52;;;;;;;4.80;3.10;;;2.90;99.90;;;;;;6193779;23;20173;-91
2022/04/15 13:57:13;;;;;;;3.50;3.10;;;3.00;99.90;;;;;;6193048;23;20193;-91
2022/04/15 13:59:44;;;;;;;4.13;3.23;;;3.00;99.90;;;;;;6192359;23;20188;-90
2022/04/15 14:02:16;;;;;;;4.63;3.13;;;3.10;99.90;;;;;;6192874;23;20177;-90
2022/04/15 14:04:55;;;;;;;5.13;3.80;;;3.10;99.90;;;;;;6196540;23;20208;-90
2022/04/15 14:07:32;;;;;;;4.13;3.57;;;3.10;99.90;;;;;;6193372;23;20177;-90
2022/04/15 14:10:09;;;;;;;4.63;3.60;;;3.10;99.90;;;;;;6193156;23;20200;-91
2022/04/15 14:12:41;;;;;;;5.27;4.20;;;3.10;99.90;;;;;;6193953;23;20651;-90
2022/04/15 14:15:12;;;;;;;4.83;3.80;;;3.20;99.90;;;;;;6192906;23;20224;-90
2022/04/15 14:17:49;;;;;;;6.07;4.17;;;3.20;99.90;;;;;;6194983;23;20445;-91
2022/04/15 14:20:23;;;;;;;6.37;4.73;;;3.30;99.90;;;;;;6198211;23;20177;-91
2022/04/15 14:22:57;;;;;;;5.47;4.53;;;3.40;99.90;;;;;;6195629;23;20185;-90
2022/04/15 14:25:29;;;;;;;5.37;4.40;;;3.40;99.90;;;;;;6192765;23;20251;-91
2022/04/15 14:28:00;;;;;;;7.97;4.93;;;3.30;99.90;;;;;;6192382;23;20196;-91
2022/04/15 14:30:42;;;;;;;7.53;5.83;;;3.30;99.90;;;;;;6195567;23;20179;-92